Rochester International Airport
KRST : now visible

Airfield :











YOU CAN JOIN US ON...

 
LOGIN :

Register | Disclaimer

   EN    FR    IT 

 









Legend :    VFR   Marginal VFR   IFR   Intensive IFR   Very Intensive IFR
Visi :
Ceiling :
>= 8 km
>= 3000ft
5 to 8 km
1000 to 3000 ft
1500m to 5 km
500 to 1000 ft
800 to 1500m
200 to 500 ft
< 800m
< 200 ft
Symbols :   Thunderstorms  Fog  Heavy snow  Heavy precipitations  Wind > 20 kt







- Airport Elevation : 1317 ft
- IATA code : RST


KRST - Rochester International

CURRENT METAR :
  • 260254Z 14010KT 10SM SCT045 17/12 A2994 RMK AO2 SLP137 T01720122 56003

EXPIRED METARs :
  • 260154Z 14008KT 10SM FEW045 17/13 A2995 RMK AO2 SLP140 T01720133
  • 260054Z 14008KT 10SM CLR 18/13 A2994 RMK AO2 SLP137 T01780133

TAF KRST
Valid from the 26 at 00:00 until the 27 at 00:00 UTC


252322Z 2600/2624 13007KT P6SM SCT030 BKN080
FM261100 14006KT P6SM SCT014 BKN026
FM261400 13009KT P6SM SCT008 BKN015
FM261800 14010G18KT P6SM VCSH OVC020
FM262100 19006KT 5SM -SHRA SCT008 OVC015
No reported NOTAMs for that airfield.



MET'MAP, your aeronautical weather chart ! - Copyright ORBIFLY December 2007 - Disclaimer

ORBIFLY MET'MAP TEAM :

Programming & Development : Alexandra Zaïnal
Concept & Development : Baudouin d'Aumeries
Co-Development & Prog : Marc-Olivier Méhu
Technical & hardware support : Manuel Goepfert

Contact : metmap@orbifly.com




SOURCES & CREDITS :

   NOAA       Earth
Advisory